Time;durP1;ratioP1;P1;durP2;ratioP2;P2;SDS_P1;SDS_P2;PMS_P1;PMS_P2;Temp;Humidity;BMP_temperature;BMP_pressure;BME280_temperature;BME280_humidity;BME280_pressure;Samples;Min_cycle;Max_cycle;Signal;HPM_P1;HPM_P2
2021/12/08 00:01:09;;;;;;;10.07;5.45;;;;;;;-1.21;100.00;97315.06;12898656;23;20096;-84
2021/12/08 00:06:12;;;;;;;11.13;5.88;;;;;;;-1.30;100.00;97314.06;12890865;23;20021;-83
2021/12/08 00:16:35;;;;;;;10.32;5.88;;;;;;;-1.61;100.00;97305.50;12889292;23;20020;-81
2021/12/08 00:21:39;;;;;;;8.98;5.85;;;;;;;-1.70;100.00;97299.22;12878880;23;20027;-83
2021/12/08 00:26:39;;;;;;;12.73;6.40;;;;;;;-1.75;100.00;97292.09;12875813;23;20019;-80
2021/12/08 00:31:46;;;;;;;8.73;6.00;;;;;;;-1.86;100.00;97293.19;12880520;23;20039;-82
2021/12/08 00:36:57;;;;;;;10.63;6.47;;;;;;;-1.81;100.00;97288.72;12911348;22;20047;-85
2021/12/08 00:42:00;;;;;;;10.52;6.85;;;;;;;-1.75;100.00;97278.97;12913034;22;20005;-85
2021/12/08 00:47:23;;;;;;;10.20;6.00;;;;;;;-1.78;100.00;97261.09;12905333;22;20039;-83
2021/12/08 00:52:42;;;;;;;12.90;6.85;;;;;;;-1.79;100.00;97257.69;12888867;23;20048;-82
2021/12/08 00:58:31;;;;;;;11.82;6.85;;;;;;;-1.64;100.00;97253.44;12874719;22;20015;-82
2021/12/08 01:03:45;;;;;;;14.30;7.65;;;;;;;-1.63;100.00;97244.47;12912489;22;20047;-81
2021/12/08 01:08:57;;;;;;;13.10;7.13;;;;;;;-1.53;100.00;97239.16;12902142;23;20051;-82
2021/12/08 01:14:09;;;;;;;12.38;7.15;;;;;;;-1.42;100.00;97226.75;12894008;22;20105;-83
2021/12/08 01:19:11;;;;;;;12.60;7.65;;;;;;;-1.31;100.00;97217.72;12877697;23;20397;-79
2021/12/08 01:24:12;;;;;;;12.48;6.93;;;;;;;-1.24;100.00;97203.22;12862841;23;20047;-81
2021/12/08 01:29:22;;;;;;;10.77;6.68;;;;;;;-1.18;100.00;97198.72;12871632;23;20425;-80
2021/12/08 01:34:32;;;;;;;11.82;6.35;;;;;;;-1.17;100.00;97179.22;12860770;23;20030;-79
2021/12/08 01:39:34;;;;;;;10.57;7.00;;;;;;;-1.19;100.00;97199.75;12846105;23;20140;-81
2021/12/08 01:50:16;;;;;;;12.57;6.85;;;;;;;-1.38;100.00;97168.03;12731819;22;20026;-82
2021/12/08 01:55:17;;;;;;;13.07;7.30;;;;;;;-1.24;100.00;97166.38;12884527;23;20028;-79
2021/12/08 02:00:31;;;;;;;13.30;8.15;;;;;;;-1.09;100.00;97170.75;12888435;23;20024;-81
2021/12/08 02:05:32;;;;;;;;;;;;;;;-1.01;100.00;97141.16;12880580;23;20759;-81
2021/12/08 02:10:38;;;;;;;12.35;7.97;;;;;;;-1.00;100.00;97139.34;12877631;23;19919;-83
2021/12/08 02:15:42;;;;;;;11.85;8.07;;;;;;;-0.90;100.00;97134.00;12896341;22;20047;-82
2021/12/08 02:21:03;;;;;;;14.95;8.05;;;;;;;-0.91;100.00;97129.78;12899830;22;20016;-82
2021/12/08 02:26:04;;;;;;;18.13;9.13;;;;;;;-0.76;100.00;97148.06;12891354;23;20012;-81
2021/12/08 02:31:09;;;;;;;13.25;8.38;;;;;;;-0.74;100.00;97142.53;12885549;23;20028;-81
2021/12/08 02:47:06;;;;;;;12.50;7.78;;;;;;;-0.73;100.00;97139.63;12891510;23;20405;-80
2021/12/08 02:52:14;;;;;;;15.18;8.15;;;;;;;-0.70;100.00;97146.97;12891955;23;20725;-79
2021/12/08 02:57:20;;;;;;;13.50;8.63;;;;;;;-0.71;100.00;97137.50;12896834;23;20009;-81
2021/12/08 03:02:28;;;;;;;12.88;7.47;;;;;;;-0.63;100.00;97136.91;12894989;23;20072;-80
2021/12/08 03:07:30;;;;;;;12.27;7.80;;;;;;;-0.51;100.00;97141.78;12859737;23;20336;-80
2021/12/08 03:12:31;;;;;;;13.68;7.72;;;;;;;-0.49;100.00;97154.69;12868956;23;20017;-80
2021/12/08 03:17:34;;;;;;;13.65;7.72;;;;;;;-0.47;100.00;97150.69;12872263;23;20027;-80
2021/12/08 03:22:45;;;;;;;11.07;7.53;;;;;;;-0.34;100.00;97165.09;12870873;23;20034;-81
2021/12/08 03:28:17;;;;;;;11.32;7.15;;;;;;;-0.35;100.00;97160.88;12898101;23;20012;-85
2021/12/08 03:33:38;;;;;;;12.55;7.20;;;;;;;-0.38;100.00;97164.06;12911223;22;20024;-85
2021/12/08 03:38:54;;;;;;;9.73;6.10;;;;;;;-0.28;100.00;97166.59;12867729;23;20079;-83
2021/12/08 03:44:13;;;;;;;11.05;6.20;;;;;;;-0.15;100.00;97168.56;12886322;23;20026;-82
2021/12/08 03:49:30;;;;;;;9.57;5.63;;;;;;;-0.13;100.00;97161.16;12897085;23;20051;-87
2021/12/08 04:01:33;;;;;;;8.85;5.00;;;;;;;0.04;100.00;97147.50;12890510;23;20645;-84
2021/12/08 04:07:01;;;;;;;8.85;5.25;;;;;;;-0.01;100.00;97145.72;12868410;23;20013;-83
2021/12/08 04:12:24;;;;;;;8.25;5.28;;;;;;;0.03;100.00;97139.88;12873232;23;20020;-82
2021/12/08 04:18:01;;;;;;;7.80;5.32;;;;;;;0.11;100.00;97137.41;12881826;23;20437;-85
2021/12/08 04:23:35;;;;;;;;;;;;;;;;;;;;;
2021/12/08 04:29:41;;;;;;;;;;;;;;;;;;;;;
2021/12/08 04:35:41;;;;;;;8.02;5.25;;;;;;;0.16;100.00;97118.88;12839441;22;20027;-84
2021/12/08 04:47:32;;;;;;;6.60;4.60;;;;;;;0.12;100.00;97106.53;12879151;23;20100;-82
2021/12/08 04:52:54;;;;;;;7.93;5.55;;;;;;;0.18;100.00;97092.19;12906549;22;20043;-81
2021/12/08 05:09:20;;;;;;;7.25;5.50;;;;;;;0.12;100.00;97095.97;12881580;23;20016;-84
2021/12/08 05:15:00;;;;;;;8.15;5.47;;;;;;;0.13;100.00;97093.06;12867372;22;20100;-83
2021/12/08 05:27:08;;;;;;;;;;;;;;;;;;;;;
2021/12/08 05:32:24;;;;;;;9.50;5.78;;;;;;;0.19;100.00;97118.31;12896423;23;20095;-85
2021/12/08 05:37:42;;;;;;;9.25;5.80;;;;;;;0.14;100.00;97113.09;12882738;23;20092;-82
2021/12/08 05:43:32;;;;;;;11.45;6.00;;;;;;;0.12;100.00;97114.44;12903547;23;20008;-82
2021/12/08 05:48:46;;;;;;;11.45;6.55;;;;;;;-0.01;100.00;97121.97;12865561;23;20036;-83
2021/12/08 05:54:53;;;;;;;12.02;7.72;;;;;;;-0.07;100.00;97111.78;12896361;23;20024;-82
2021/12/08 06:00:10;;;;;;;10.13;6.38;;;;;;;-0.22;100.00;97118.00;12898419;23;20024;-83
2021/12/08 06:05:44;;;;;;;11.05;6.80;;;;;;;-0.21;100.00;97124.84;12865161;22;20009;-84
2021/12/08 06:11:16;;;;;;;12.55;7.30;;;;;;;-0.30;100.00;97137.09;12773287;23;20032;-84
2021/12/08 06:16:39;;;;;;;11.68;7.75;;;;;;;-0.33;100.00;97135.03;12776646;23;20155;-83
2021/12/08 06:21:52;;;;;;;11.85;8.48;;;;;;;-0.28;100.00;97137.59;12781787;23;20069;-83
2021/12/08 06:33:45;;;;;;;16.05;8.70;;;;;;;-0.38;100.00;97135.06;12679510;23;20100;-83
2021/12/08 06:39:06;;;;;;;13.10;9.02;;;;;;;-0.34;100.00;97155.31;12771389;23;20033;-82
2021/12/08 06:44:39;;;;;;;15.30;8.90;;;;;;;-0.28;100.00;97141.00;12781643;23;20029;-83
2021/12/08 06:50:19;;;;;;;15.82;9.20;;;;;;;-0.34;100.00;97142.16;12787782;23;20002;-83
2021/12/08 06:55:56;;;;;;;16.00;9.20;;;;;;;-0.38;100.00;97127.16;12775233;23;20001;-83
2021/12/08 07:01:29;;;;;;;15.52;8.98;;;;;;;-0.39;100.00;97117.69;12780791;23;20013;-82
2021/12/08 07:06:59;;;;;;;23.05;12.23;;;;;;;-0.34;100.00;97141.34;12716367;23;20006;-81
2021/12/08 07:12:17;;;;;;;16.42;9.35;;;;;;;-0.37;100.00;97153.22;12727692;23;20018;-81
2021/12/08 07:17:37;;;;;;;16.73;9.13;;;;;;;-0.35;100.00;97145.06;12713819;23;20037;-84
2021/12/08 07:22:47;;;;;;;14.95;9.68;;;;;;;-0.35;100.00;97137.16;12727879;23;20010;-81
2021/12/08 07:33:07;;;;;;;15.07;9.25;;;;;;;-0.22;100.00;97133.84;12729188;23;20037;-80
2021/12/08 07:38:15;;;;;;;15.73;9.20;;;;;;;-0.22;100.00;97135.69;12702935;23;20017;-85
2021/12/08 07:43:38;;;;;;;17.83;9.98;;;;;;;-0.32;100.00;97134.72;12728328;23;20017;-81
2021/12/08 07:49:35;;;;;;;16.27;9.70;;;;;;;-0.18;100.00;97134.84;12726926;23;20074;-81
2021/12/08 07:55:40;;;;;;;17.58;10.35;;;;;;;-0.17;100.00;97146.19;12727459;23;20029;-82
2021/12/08 08:06:57;;;;;;;18.80;9.55;;;;;;;-0.14;100.00;97138.50;12729445;23;20018;-84
2021/12/08 08:12:28;;;;;;;20.05;10.80;;;;;;;-0.13;100.00;97145.34;12718627;23;20029;-83
2021/12/08 08:18:00;;;;;;;14.40;8.98;;;;;;;-0.10;100.00;97152.66;12726149;23;20018;-83
2021/12/08 08:23:31;;;;;;;19.85;10.90;;;;;;;-0.06;100.00;97142.38;12705369;23;20029;-81
2021/12/08 08:29:07;;;;;;;16.63;10.45;;;;;;;0.01;100.00;97145.44;12718725;23;20010;-85
2021/12/08 08:34:09;;;;;;;17.63;9.88;;;;;;;-0.06;100.00;97147.63;12703522;23;20017;-85
2021/12/08 08:39:46;;;;;;;13.00;8.50;;;;;;;-0.05;100.00;97149.22;12722054;23;20021;-81
2021/12/08 08:44:58;;;;;;;18.02;10.07;;;;;;;-0.02;100.00;97141.50;12717709;23;20093;-84
2021/12/08 08:50:08;;;;;;;19.25;10.40;;;;;;;-0.13;100.00;97131.38;12722452;23;20010;-85
2021/12/08 09:01:07;;;;;;;18.10;10.57;;;;;;;-0.02;100.00;97117.78;12696975;23;20034;-82
2021/12/08 09:06:15;;;;;;;18.88;10.85;;;;;;;-0.02;100.00;97116.97;12724508;23;20045;-83
2021/12/08 09:11:38;;;;;;;16.95;10.57;;;;;;;0.01;100.00;97126.22;12721872;23;20014;-84
2021/12/08 09:16:47;;;;;;;16.42;10.27;;;;;;;-0.03;100.00;97123.31;12659352;23;20025;-82
2021/12/08 09:22:06;;;;;;;19.13;10.45;;;;;;;-0.03;100.00;97123.31;12683754;23;20014;-81
2021/12/08 09:27:10;;;;;;;20.15;10.95;;;;;;;-0.01;100.00;97100.88;12701321;23;20118;-82
2021/12/08 09:32:26;;;;;;;;;;;;;;;-0.04;100.00;97075.06;12676584;23;20021;-84
2021/12/08 09:37:55;;;;;;;16.23;9.75;;;;;;;0.11;100.00;97083.88;12692247;23;19917;-83
2021/12/08 09:43:02;;;;;;;20.33;11.27;;;;;;;0.17;100.00;97072.94;12753060;23;20013;-81
2021/12/08 09:48:08;;;;;;;18.92;11.40;;;;;;;0.31;100.00;97083.59;12760258;23;20044;-81
2021/12/08 09:53:09;;;;;;;17.38;9.85;;;;;;;0.43;100.00;97080.50;12703061;23;20537;-82
2021/12/08 09:58:10;;;;;;;20.45;10.00;;;;;;;0.27;100.00;97075.47;12699472;23;20128;-79
2021/12/08 10:03:13;;;;;;;21.40;11.65;;;;;;;0.26;100.00;97060.69;12697659;23;20077;-82
2021/12/08 10:08:14;;;;;;;20.23;11.52;;;;;;;0.33;100.00;97036.56;12700309;23;20022;-80
2021/12/08 10:13:15;;;;;;;20.15;12.52;;;;;;;0.57;100.00;97023.28;12734842;23;20012;-80
2021/12/08 10:18:16;;;;;;;26.33;14.38;;;;;;;0.42;100.00;97034.06;12753960;23;20061;-82
2021/12/08 10:23:30;;;;;;;20.15;11.30;;;;;;;0.55;100.00;97055.25;12739428;23;20017;-80
2021/12/08 10:28:38;;;;;;;20.38;11.30;;;;;;;0.79;100.00;97070.97;12733001;23;20068;-82
2021/12/08 10:39:00;;;;;;;19.73;10.82;;;;;;;0.59;100.00;97063.38;12775481;23;20021;-82
2021/12/08 10:44:01;;;;;;;24.02;11.35;;;;;;;0.67;100.00;97057.44;12708771;23;20077;-82
2021/12/08 10:49:27;;;;;;;19.48;11.43;;;;;;;0.83;100.00;97057.97;12729804;23;20021;-81
2021/12/08 10:54:34;;;;;;;21.02;10.98;;;;;;;0.75;100.00;97056.78;12736069;23;20037;-82
2021/12/08 10:59:55;;;;;;;18.73;10.63;;;;;;;0.98;100.00;97054.28;12733435;23;20021;-81
2021/12/08 11:04:56;;;;;;;20.70;11.23;;;;;;;0.99;100.00;97047.94;12761073;23;20024;-83
2021/12/08 11:09:57;;;;;;;21.05;11.02;;;;;;;0.88;100.00;97046.53;12739728;23;20043;-81
2021/12/08 11:14:59;;;;;;;19.83;11.52;;;;;;;0.77;100.00;97048.56;12707617;23;20029;-82
2021/12/08 11:20:29;;;;;;;20.05;11.35;;;;;;;0.90;100.00;97055.72;12733537;23;20010;-84
2021/12/08 11:25:39;;;;;;;21.15;11.88;;;;;;;0.66;100.00;97065.66;12706428;23;20022;-82
2021/12/08 11:30:40;;;;;;;25.02;12.43;;;;;;;0.94;100.00;97072.59;12729664;23;20076;-81
2021/12/08 11:35:40;;;;;;;24.80;11.20;;;;;;;0.94;100.00;97062.03;12722589;23;20048;-83
2021/12/08 11:40:41;;;;;;;22.65;11.85;;;;;;;0.95;100.00;97054.88;12712352;23;20018;-80
2021/12/08 11:45:43;;;;;;;23.75;12.55;;;;;;;0.89;100.00;97043.59;12746761;23;20035;-81
2021/12/08 11:50:43;;;;;;;19.88;11.38;;;;;;;0.96;100.00;97035.31;12740386;23;20073;-79
2021/12/08 11:55:44;;;;;;;21.85;12.18;;;;;;;0.81;100.00;97028.41;12757487;23;20022;-82
2021/12/08 12:00:49;;;;;;;23.70;12.82;;;;;;;0.90;100.00;97028.53;12700115;23;20097;-79
2021/12/08 12:05:49;;;;;;;40.15;19.67;;;;;;;0.79;100.00;97018.16;12721994;23;19998;-79
2021/12/08 12:10:54;;;;;;;22.17;12.73;;;;;;;0.78;100.00;97023.72;12727864;23;20037;-80
2021/12/08 12:15:56;;;;;;;21.55;12.73;;;;;;;0.69;100.00;97013.03;12700788;23;20021;-81
2021/12/08 12:21:15;;;;;;;23.27;12.25;;;;;;;0.85;100.00;97003.00;12726208;23;20025;-80
2021/12/08 12:26:31;;;;;;;23.30;12.45;;;;;;;0.73;100.00;97000.84;12743076;23;20017;-80
2021/12/08 12:32:03;;;;;;;22.40;13.07;;;;;;;0.63;100.00;96990.44;12721968;23;20043;-80
2021/12/08 12:37:25;;;;;;;22.85;12.45;;;;;;;0.69;100.00;96978.72;12716524;23;20064;-79
2021/12/08 12:42:27;;;;;;;22.85;12.90;;;;;;;0.61;100.00;96962.75;12720999;23;20029;-80
2021/12/08 12:47:30;;;;;;;25.58;12.73;;;;;;;0.84;100.00;96956.53;12717947;23;20021;-79
2021/12/08 12:52:38;;;;;;;26.50;14.00;;;;;;;0.93;100.00;96977.78;12765158;23;20027;-80
2021/12/08 12:58:00;;;;;;;24.70;12.80;;;;;;;0.85;100.00;96977.38;12713760;23;20086;-80
2021/12/08 13:03:02;;;;;;;24.08;12.57;;;;;;;0.74;100.00;96989.19;12725286;23;20138;-80
2021/12/08 13:08:02;;;;;;;27.70;13.98;;;;;;;0.82;100.00;96982.44;12776416;23;20337;-79
2021/12/08 13:13:13;;;;;;;20.45;12.18;;;;;;;0.78;100.00;96987.53;12749016;23;20080;-80
2021/12/08 13:18:14;;;;;;;26.48;13.63;;;;;;;0.88;100.00;96991.84;12744637;23;20017;-80
2021/12/08 13:23:19;;;;;;;24.40;14.00;;;;;;;0.89;100.00;96992.63;12690452;23;20017;-82
2021/12/08 13:28:23;;;;;;;26.27;13.73;;;;;;;0.72;100.00;96999.25;12691221;23;20025;-80
2021/12/08 13:33:36;;;;;;;27.02;13.70;;;;;;;0.67;100.00;97001.22;12714063;23;20029;-79
2021/12/08 13:38:42;;;;;;;25.15;14.00;;;;;;;0.59;100.00;96978.88;12693784;23;20029;-80
2021/12/08 13:43:45;;;;;;;28.35;14.43;;;;;;;0.64;100.00;96955.06;12728362;23;19989;-80
2021/12/08 13:49:24;;;;;;;25.40;12.77;;;;;;;0.57;100.00;96921.09;12780280;23;20040;-79
2021/12/08 13:54:27;;;;;;;27.73;13.40;;;;;;;0.62;100.00;96948.47;12718525;23;20025;-80
2021/12/08 13:59:54;;;;;;;26.55;12.77;;;;;;;0.59;100.00;96939.28;12718043;23;20014;-77
2021/12/08 14:05:19;;;;;;;22.65;12.60;;;;;;;0.57;100.00;96957.28;12727458;23;20055;-75
2021/12/08 14:10:29;;;;;;;24.48;12.43;;;;;;;0.47;100.00;96955.59;12710815;23;20014;-78
2021/12/08 14:15:40;;;;;;;23.67;12.75;;;;;;;0.51;100.00;96956.56;12700577;23;20103;-79
2021/12/08 14:20:49;;;;;;;21.55;11.75;;;;;;;0.47;100.00;96946.91;12677008;23;20022;-77
2021/12/08 14:25:51;;;;;;;23.15;11.75;;;;;;;0.45;100.00;96956.94;12729015;23;20364;-78
2021/12/08 14:30:54;;;;;;;18.50;10.18;;;;;;;0.42;100.00;96952.25;12705687;23;20064;-78
2021/12/08 14:35:57;;;;;;;20.13;10.63;;;;;;;0.25;100.00;96923.75;12702797;23;20033;-77
2021/12/08 14:40:58;;;;;;;17.33;11.05;;;;;;;0.21;100.00;96913.03;12727208;23;20096;-79
2021/12/08 14:46:12;;;;;;;20.67;11.95;;;;;;;0.18;100.00;96918.88;12698591;23;20072;-77
2021/12/08 14:51:13;;;;;;;;;;;;;;;0.07;100.00;96919.31;12722568;23;20040;-77
2021/12/08 14:56:13;;;;;;;16.90;9.70;;;;;;;0.13;100.00;96929.50;12699239;23;19943;-76
2021/12/08 15:01:15;;;;;;;18.27;9.70;;;;;;;0.10;100.00;96937.22;12748746;23;20013;-76
2021/12/08 15:06:21;;;;;;;19.38;10.32;;;;;;;0.11;100.00;96954.59;12733306;23;20064;-76
2021/12/08 15:11:25;;;;;;;19.50;11.52;;;;;;;-0.06;100.00;96937.44;12705388;23;20410;-78
2021/12/08 15:16:29;;;;;;;18.38;10.88;;;;;;;0.02;100.00;96938.66;12729002;23;20089;-77
2021/12/08 15:21:38;;;;;;;15.30;9.07;;;;;;;0.08;100.00;96947.25;12702824;23;20713;-77
2021/12/08 15:26:40;;;;;;;17.05;10.02;;;;;;;0.05;100.00;96943.34;12701647;23;20074;-78
2021/12/08 15:31:42;;;;;;;21.40;12.38;;;;;;;-0.02;100.00;96941.06;12712551;23;20045;-79
2021/12/08 15:36:52;;;;;;;20.52;12.20;;;;;;;-0.04;100.00;96953.75;12708847;23;20036;-79
2021/12/08 15:41:56;;;;;;;28.33;14.02;;;;;;;-0.08;100.00;96950.13;12709419;23;20022;-78
2021/12/08 15:46:56;;;;;;;25.02;14.27;;;;;;;-0.06;100.00;96960.41;12730457;23;20092;-79
2021/12/08 15:52:08;;;;;;;22.40;12.35;;;;;;;-0.08;100.00;96965.97;12699998;23;20063;-77
2021/12/08 15:57:15;;;;;;;27.63;13.95;;;;;;;-0.16;100.00;96977.16;12725698;23;20025;-78
2021/12/08 16:02:20;;;;;;;27.88;14.82;;;;;;;-0.25;100.00;96975.44;12699065;23;20020;-77
2021/12/08 16:07:27;;;;;;;25.90;15.77;;;;;;;-0.23;100.00;96986.47;12723729;23;20048;-78
2021/12/08 16:12:32;;;;;;;29.20;16.02;;;;;;;-0.22;100.00;96988.03;12679804;23;20029;-76
2021/12/08 16:17:36;;;;;;;26.63;14.73;;;;;;;-0.12;100.00;97004.50;12730736;23;20100;-77
2021/12/08 16:22:38;;;;;;;24.90;14.10;;;;;;;-0.29;100.00;97012.13;12674955;23;20021;-78
2021/12/08 16:27:39;;;;;;;24.35;14.13;;;;;;;-0.20;100.00;97020.19;12723970;23;20540;-77
2021/12/08 16:32:40;;;;;;;27.40;14.02;;;;;;;-0.18;100.00;97015.41;12727498;23;20370;-78
2021/12/08 16:37:41;;;;;;;25.20;14.32;;;;;;;-0.27;100.00;97025.81;12725974;23;20029;-77
2021/12/08 16:48:06;;;;;;;27.92;14.10;;;;;;;-0.42;100.00;97010.97;12727482;23;20013;-78
2021/12/08 16:53:12;;;;;;;24.13;14.10;;;;;;;-0.46;100.00;97038.94;12708423;23;20389;-78
2021/12/08 16:58:13;;;;;;;24.88;13.13;;;;;;;-0.45;100.00;97045.03;12755564;23;20067;-81
2021/12/08 17:03:17;;;;;;;24.92;14.23;;;;;;;-0.45;100.00;97042.38;12714408;23;20699;-78
2021/12/08 17:08:18;;;;;;;;;;;;;;;-0.30;100.00;97047.44;12725189;23;20021;-80
2021/12/08 17:13:21;;;;;;;25.17;15.40;;;;;;;-0.46;100.00;97051.34;12695610;23;19920;-79
2021/12/08 17:18:22;;;;;;;29.98;15.02;;;;;;;-0.43;100.00;97051.56;12691682;23;20022;-77
2021/12/08 17:23:23;;;;;;;29.17;14.48;;;;;;;-0.46;100.00;97060.03;12718377;23;20753;-77
2021/12/08 17:28:23;;;;;;;23.13;13.60;;;;;;;-0.43;100.00;97064.75;12717187;23;20057;-77
2021/12/08 17:33:25;;;;;;;26.77;13.85;;;;;;;-0.40;100.00;97066.81;12689591;23;20112;-79
2021/12/08 17:38:27;;;;;;;24.55;12.82;;;;;;;-0.36;100.00;97062.56;12690651;23;20021;-76
2021/12/08 17:43:29;;;;;;;25.63;13.23;;;;;;;-0.44;100.00;97057.13;12666499;23;20082;-77
2021/12/08 17:48:31;;;;;;;23.73;12.35;;;;;;;-0.42;100.00;97047.09;12716545;23;20060;-77
2021/12/08 17:53:32;;;;;;;23.33;13.30;;;;;;;-0.45;100.00;97060.84;12694067;23;20402;-77
2021/12/08 17:58:38;;;;;;;23.25;13.70;;;;;;;-0.44;100.00;97062.41;12722995;23;20509;-77
2021/12/08 18:03:40;;;;;;;21.25;12.00;;;;;;;-0.41;100.00;97072.38;12723711;23;20009;-75
2021/12/08 18:08:44;;;;;;;20.63;12.30;;;;;;;-0.43;100.00;97063.97;12725254;23;20022;-76
2021/12/08 18:13:46;;;;;;;;;;;;;;;-0.53;100.00;97043.78;12724944;23;20083;-75
2021/12/08 18:18:49;;;;;;;25.02;13.55;;;;;;;-0.53;100.00;97059.59;12701058;23;19943;-76
2021/12/08 18:23:50;;;;;;;26.65;14.35;;;;;;;-0.48;100.00;97056.09;12723038;23;20327;-77
2021/12/08 18:28:51;;;;;;;25.27;13.93;;;;;;;-0.51;100.00;97049.56;12723151;23;20045;-76
2021/12/08 18:33:54;;;;;;;32.20;16.60;;;;;;;-0.62;100.00;97029.66;12702545;23;20026;-76
2021/12/08 18:38:57;;;;;;;36.27;17.57;;;;;;;-0.63;100.00;97044.69;12722530;23;20048;-76
2021/12/08 18:44:00;;;;;;;36.95;17.45;;;;;;;-0.57;100.00;97043.53;12724535;23;20025;-75
2021/12/08 18:49:00;;;;;;;32.35;16.27;;;;;;;-0.61;100.00;97029.38;12734280;23;20013;-75
2021/12/08 18:54:04;;;;;;;34.45;18.42;;;;;;;-0.61;100.00;97032.00;12724494;23;20041;-76
2021/12/08 18:59:05;;;;;;;37.28;18.30;;;;;;;-0.59;100.00;97047.53;12724785;23;20064;-77
2021/12/08 19:04:07;;;;;;;38.53;18.85;;;;;;;-0.62;100.00;97054.16;12745834;23;20018;-79
2021/12/08 19:09:10;;;;;;;38.85;19.05;;;;;;;-0.64;100.00;97045.75;12691486;23;20173;-76
2021/12/08 19:14:10;;;;;;;40.63;21.40;;;;;;;-0.64;100.00;97023.88;12701022;23;20042;-76
2021/12/08 19:19:11;;;;;;;41.35;21.55;;;;;;;-0.64;100.00;97023.88;12704311;23;20025;-75
2021/12/08 19:24:12;;;;;;;43.97;21.77;;;;;;;-0.64;100.00;97043.13;12737959;23;20018;-76
2021/12/08 19:29:14;;;;;;;41.33;21.05;;;;;;;-0.62;100.00;97048.09;12722834;23;20037;-77
2021/12/08 19:34:15;;;;;;;40.22;20.02;;;;;;;-0.61;100.00;97057.56;12758587;23;20024;-82
2021/12/08 19:39:18;;;;;;;37.35;19.20;;;;;;;-0.61;100.00;97063.63;12730772;23;20009;-76
2021/12/08 19:44:18;;;;;;;34.55;18.83;;;;;;;-0.59;100.00;97060.72;12728397;23;20021;-76
2021/12/08 19:49:19;;;;;;;35.47;19.27;;;;;;;-0.53;100.00;97099.13;12676304;23;20116;-76
2021/12/08 19:54:22;;;;;;;30.27;16.15;;;;;;;-0.50;100.00;97103.81;12724845;23;20045;-76
2021/12/08 19:59:23;;;;;;;30.70;15.97;;;;;;;-0.55;100.00;97098.59;12727226;23;20033;-76
2021/12/08 20:04:24;;;;;;;32.60;16.70;;;;;;;-0.58;100.00;97102.59;12700938;23;20264;-75
2021/12/08 20:09:25;;;;;;;31.35;15.52;;;;;;;-0.49;100.00;97094.06;12703062;23;20115;-78
2021/12/08 20:14:27;;;;;;;27.60;15.05;;;;;;;-0.48;100.00;97087.72;12730418;23;20045;-76
2021/12/08 20:19:27;;;;;;;33.05;16.65;;;;;;;-0.53;100.00;97085.16;12706681;23;20025;-77
2021/12/08 20:24:28;;;;;;;29.95;15.45;;;;;;;-0.50;100.00;97090.66;12707487;23;20021;-76
2021/12/08 20:29:30;;;;;;;27.50;15.88;;;;;;;-0.49;100.00;97086.16;12727434;23;20021;-78
2021/12/08 20:34:33;;;;;;;26.05;14.93;;;;;;;-0.48;100.00;97088.50;12724990;23;20009;-75
2021/12/08 20:39:34;;;;;;;31.10;17.67;;;;;;;-0.54;100.00;97083.59;12730545;23;20021;-77
2021/12/08 20:44:34;;;;;;;33.30;16.90;;;;;;;-0.53;100.00;97087.81;12701607;23;20148;-77
2021/12/08 20:49:36;;;;;;;27.60;15.93;;;;;;;-0.46;100.00;97104.03;12726024;23;20013;-77
2021/12/08 20:54:37;;;;;;;30.60;15.88;;;;;;;-0.50;100.00;97095.91;12702150;23;20052;-75
2021/12/08 20:59:41;;;;;;;31.92;16.08;;;;;;;-0.47;100.00;97097.19;12731768;23;20048;-76
2021/12/08 21:04:45;;;;;;;27.88;15.60;;;;;;;-0.48;100.00;97106.97;12727390;23;20013;-76
2021/12/08 21:09:45;;;;;;;;;;;;;;;-0.45;100.00;97110.91;12701581;23;20400;-77
2021/12/08 21:14:45;;;;;;;34.50;17.38;;;;;;;-0.49;100.00;97115.94;12726470;23;19909;-76
2021/12/08 21:19:46;;;;;;;28.20;16.10;;;;;;;-0.46;100.00;97114.59;12699349;23;20014;-76
2021/12/08 21:24:47;;;;;;;28.17;15.63;;;;;;;-0.45;100.00;97114.31;12726021;23;20025;-76
2021/12/08 21:29:47;;;;;;;29.58;16.23;;;;;;;-0.47;100.00;97105.09;12725599;23;20029;-77
2021/12/08 21:34:50;;;;;;;39.95;21.52;;;;;;;-0.53;100.00;97091.22;12726903;23;20017;-77
2021/12/08 21:39:51;;;;;;;47.30;21.30;;;;;;;-0.54;100.00;97080.97;12725646;23;20441;-77
2021/12/08 21:44:51;;;;;;;40.88;22.05;;;;;;;-0.45;100.00;97082.69;12698841;23;20033;-79
2021/12/08 21:50:01;;;;;;;37.20;20.13;;;;;;;-0.49;100.00;97094.84;12725543;23;20018;-76
2021/12/08 21:55:06;;;;;;;39.42;20.75;;;;;;;-0.46;100.00;97101.41;12700631;23;20067;-76
2021/12/08 22:00:11;;;;;;;37.63;18.80;;;;;;;-0.45;100.00;97105.63;12738488;23;20043;-75
2021/12/08 22:05:12;;;;;;;37.50;19.25;;;;;;;-0.44;100.00;97109.84;12746775;23;20057;-77
2021/12/08 22:10:17;;;;;;;40.47;19.90;;;;;;;-0.48;100.00;97120.13;12701093;23;20438;-76
2021/12/08 22:15:23;;;;;;;38.22;19.77;;;;;;;-0.50;100.00;97108.31;12726312;23;20108;-77
2021/12/08 22:20:26;;;;;;;43.97;20.83;;;;;;;-0.52;100.00;97119.13;12730013;23;20010;-77
2021/12/08 22:25:27;;;;;;;36.80;18.52;;;;;;;-0.52;100.00;97116.50;12724205;23;20077;-79
2021/12/08 22:30:29;;;;;;;37.72;19.08;;;;;;;-0.47;100.00;97134.88;12753436;23;20029;-76
2021/12/08 22:35:30;;;;;;;40.17;20.67;;;;;;;-0.53;100.00;97148.41;12709844;23;20041;-75
2021/12/08 22:40:31;;;;;;;37.72;19.10;;;;;;;-0.42;100.00;97155.16;12729686;23;20623;-74
2021/12/08 22:45:35;;;;;;;56.90;24.27;;;;;;;-0.41;100.00;97148.81;12698953;23;20028;-75
2021/12/08 22:50:37;;;;;;;37.30;20.08;;;;;;;-0.39;100.00;97142.19;12732352;23;20430;-76
2021/12/08 22:55:38;;;;;;;45.85;22.58;;;;;;;-0.50;100.00;97129.41;12701647;23;20036;-76
2021/12/08 23:00:42;;;;;;;42.72;20.23;;;;;;;-0.53;100.00;97125.47;12706015;23;20616;-75
2021/12/08 23:05:43;;;;;;;41.00;21.27;;;;;;;-0.56;100.00;97123.38;12726532;23;20076;-76
2021/12/08 23:10:46;;;;;;;38.88;18.55;;;;;;;-0.53;100.00;97136.03;12725772;23;20018;-75
2021/12/08 23:15:48;;;;;;;44.25;20.25;;;;;;;-0.47;100.00;97134.88;12728496;23;20310;-75
2021/12/08 23:20:54;;;;;;;44.78;20.58;;;;;;;-0.52;100.00;97113.88;12729326;23;20095;-75
2021/12/08 23:25:55;;;;;;;45.42;20.50;;;;;;;-0.42;100.00;97118.25;12700043;23;20465;-76
2021/12/08 23:30:56;;;;;;;39.95;19.10;;;;;;;-0.45;100.00;97109.06;12701502;23;20014;-75
2021/12/08 23:36:00;;;;;;;44.40;20.85;;;;;;;-0.45;100.00;97114.31;12729822;23;20049;-75
2021/12/08 23:41:03;;;;;;;41.63;20.95;;;;;;;-0.41;100.00;97117.97;12735343;23;20079;-76
2021/12/08 23:46:04;;;;;;;48.88;23.00;;;;;;;-0.46;100.00;97118.00;12749464;23;20076;-74
2021/12/08 23:51:06;;;;;;;45.55;22.23;;;;;;;-0.32;100.00;97113.66;12723962;23;20045;-75
2021/12/08 23:56:08;;;;;;;50.78;23.13;;;;;;;-0.49;100.00;97091.44;12727968;23;20028;-78
